Time;durP1;ratioP1;P1;durP2;ratioP2;P2;SDS_P1;SDS_P2;PMS_P1;PMS_P2;Temp;Humidity;BMP_temperature;BMP_pressure;BME280_temperature;BME280_humidity;BME280_pressure;Samples;Min_cycle;Max_cycle;Signal;HPM_P1;HPM_P2
2023/08/20 00:02:01;;;;;;;214.02;180.57;;;;;;;;;;4927403;28;20094;-55
2023/08/20 00:04:27;;;;;;;225.98;186.18;;;;;;;;;;4927291;28;20100;-53
2023/08/20 00:06:52;;;;;;;212.77;187.88;;;;;;;;;;4929943;28;20237;-56
2023/08/20 00:09:17;;;;;;;205.73;168.85;;;;;;;;;;4930035;28;20305;-53
2023/08/20 00:11:43;;;;;;;256.53;164.90;;;;;;;;;;4927218;28;20096;-54
2023/08/20 00:14:08;;;;;;;213.47;189.03;;;;;;;;;;4928279;28;20263;-56
2023/08/20 00:16:33;;;;;;;273.67;192.00;;;;;;;;;;4928487;28;21054;-55
2023/08/20 00:18:59;;;;;;;247.75;173.88;;;;;;;;;;4929651;28;20275;-55
2023/08/20 00:21:24;;;;;;;259.40;224.05;;;;;;;;;;4927613;28;20552;-56
2023/08/20 00:23:51;;;;;;;242.10;197.30;;;;;;;;;;4929610;28;20321;-55
2023/08/20 00:26:16;;;;;;;205.95;169.75;;;;;;;;;;4930202;28;20163;-55
2023/08/20 00:28:41;;;;;;;288.08;187.27;;;;;;;;;;4929570;28;20027;-55
2023/08/20 00:31:07;;;;;;;219.18;189.00;;;;;;;;;;4928032;28;20390;-56
2023/08/20 00:33:32;;;;;;;349.37;282.40;;;;;;;;;;4929048;28;20019;-56
2023/08/20 00:35:57;;;;;;;262.73;233.70;;;;;;;;;;4928693;28;20039;-55
2023/08/20 00:38:22;;;;;;;237.77;191.43;;;;;;;;;;4929846;28;20016;-54
2023/08/20 00:40:48;;;;;;;390.75;350.60;;;;;;;;;;4929368;28;20046;-54
2023/08/20 00:43:13;;;;;;;286.57;253.57;;;;;;;;;;4928550;28;20023;-53
2023/08/20 00:45:40;;;;;;;394.02;307.90;;;;;;;;;;4930020;28;20645;-54
2023/08/20 00:48:05;;;;;;;267.90;236.35;;;;;;;;;;4932403;28;20398;-56
2023/08/20 00:50:30;;;;;;;408.70;339.50;;;;;;;;;;4930830;28;20035;-55
2023/08/20 00:52:56;;;;;;;228.13;190.80;;;;;;;;;;4931650;28;20645;-53
2023/08/20 00:55:21;;;;;;;303.57;244.77;;;;;;;;;;4931507;28;20321;-56
2023/08/20 00:57:46;;;;;;;352.73;282.57;;;;;;;;;;4931337;28;20347;-53
2023/08/20 01:00:11;;;;;;;236.80;173.43;;;;;;;;;;4929927;28;20275;-53
2023/08/20 01:02:37;;;;;;;335.92;277.88;;;;;;;;;;4929784;28;20043;-54
2023/08/20 01:05:05;;;;;;;405.83;365.45;;;;;;;;;;4931327;28;20042;-53
2023/08/20 01:07:36;;;;;;;355.95;311.48;;;;;;;;;;4930009;28;20323;-53
2023/08/20 01:10:08;;;;;;;307.52;274.80;;;;;;;;;;4931530;28;20063;-57
2023/08/20 01:12:34;;;;;;;358.27;228.77;;;;;;;;;;4929931;28;20043;-54
2023/08/20 01:14:59;;;;;;;248.52;202.27;;;;;;;;;;4933253;28;20497;-54
2023/08/20 01:17:24;;;;;;;237.43;198.73;;;;;;;;;;4927313;28;20058;-53
2023/08/20 01:19:50;;;;;;;317.33;241.07;;;;;;;;;;4930249;28;20504;-53
2023/08/20 01:22:34;;;;;;;392.63;353.85;;;;;;;;;;4931632;28;20424;-55
2023/08/20 01:25:18;;;;;;;295.25;214.00;;;;;;;;;;4931781;28;20050;-54
2023/08/20 01:27:51;;;;;;;320.20;227.40;;;;;;;;;;4930321;28;20054;-53
2023/08/20 01:30:17;;;;;;;279.25;218.68;;;;;;;;;;4929769;28;20031;-53
2023/08/20 01:32:43;;;;;;;337.25;260.80;;;;;;;;;;4931256;28;20031;-53
2023/08/20 01:35:14;;;;;;;302.88;263.55;;;;;;;;;;4929517;28;20030;-55
2023/08/20 01:37:39;;;;;;;352.13;302.03;;;;;;;;;;4929488;28;20523;-53
2023/08/20 01:40:07;;;;;;;353.88;306.77;;;;;;;;;;4932090;28;20015;-55
2023/08/20 01:42:32;;;;;;;363.08;325.33;;;;;;;;;;4928813;28;20045;-54
2023/08/20 01:44:57;;;;;;;332.83;296.40;;;;;;;;;;4931595;28;20028;-53
2023/08/20 01:47:22;;;;;;;245.23;198.57;;;;;;;;;;4931908;28;20054;-53
2023/08/20 01:49:48;;;;;;;376.93;306.63;;;;;;;;;;4928570;28;20318;-55
2023/08/20 01:52:13;;;;;;;248.37;201.37;;;;;;;;;;4930198;28;20370;-54
2023/08/20 01:54:38;;;;;;;273.13;207.07;;;;;;;;;;4929488;28;20267;-54
2023/08/20 01:57:03;;;;;;;270.10;219.38;;;;;;;;;;4931964;28;20028;-55
2023/08/20 01:59:29;;;;;;;223.40;186.13;;;;;;;;;;4932508;28;20058;-55
2023/08/20 02:01:54;;;;;;;267.23;236.90;;;;;;;;;;4927788;28;20339;-54
2023/08/20 02:04:19;;;;;;;426.57;386.37;;;;;;;;;;4933512;28;20031;-53
2023/08/20 02:06:44;;;;;;;329.95;220.77;;;;;;;;;;4928387;28;20031;-53
2023/08/20 02:09:09;;;;;;;256.42;228.35;;;;;;;;;;4931636;28;20031;-53
2023/08/20 02:11:35;;;;;;;238.43;187.27;;;;;;;;;;4928355;28;20048;-53
2023/08/20 02:14:01;;;;;;;298.30;265.73;;;;;;;;;;4930682;28;20488;-55
2023/08/20 02:16:26;;;;;;;295.75;260.45;;;;;;;;;;4930540;28;20027;-53
2023/08/20 02:18:52;;;;;;;387.80;313.40;;;;;;;;;;4929640;28;20031;-55
2023/08/20 02:21:17;;;;;;;287.93;244.40;;;;;;;;;;4931261;28;20103;-54
2023/08/20 02:23:42;;;;;;;320.70;222.73;;;;;;;;;;4929913;28;20266;-54
2023/08/20 02:26:07;;;;;;;297.47;253.50;;;;;;;;;;4930139;28;20040;-53
2023/08/20 02:28:32;;;;;;;278.07;224.17;;;;;;;;;;4929707;28;20155;-53
2023/08/20 02:30:59;;;;;;;381.37;342.13;;;;;;;;;;4930054;28;20975;-53
2023/08/20 02:33:25;;;;;;;343.45;306.63;;;;;;;;;;4930539;28;20628;-55
2023/08/20 02:35:50;;;;;;;418.20;347.08;;;;;;;;;;4928409;28;20098;-53
2023/08/20 02:38:15;;;;;;;405.67;363.43;;;;;;;;;;4928480;28;20027;-54
2023/08/20 02:40:41;;;;;;;313.40;258.97;;;;;;;;;;4935788;28;20278;-56
2023/08/20 02:43:06;;;;;;;305.85;267.05;;;;;;;;;;4930587;28;20290;-54
2023/08/20 02:45:32;;;;;;;255.00;215.10;;;;;;;;;;4931097;28;20040;-56
2023/08/20 02:47:57;;;;;;;357.48;320.10;;;;;;;;;;4928592;28;20366;-55
2023/08/20 02:50:22;;;;;;;377.63;329.97;;;;;;;;;;4930014;28;20030;-53
2023/08/20 02:52:47;;;;;;;316.25;257.50;;;;;;;;;;4931529;28;20039;-55
2023/08/20 02:55:13;;;;;;;362.20;327.10;;;;;;;;;;4931547;28;20126;-54
2023/08/20 02:57:38;;;;;;;372.70;313.37;;;;;;;;;;4928045;28;20366;-55
2023/08/20 03:00:04;;;;;;;382.70;341.73;;;;;;;;;;4931210;28;20275;-55
2023/08/20 03:02:29;;;;;;;336.38;300.50;;;;;;;;;;4929594;28;20335;-54
2023/08/20 03:04:55;;;;;;;375.57;335.13;;;;;;;;;;4928416;28;20346;-56
2023/08/20 03:07:22;;;;;;;385.95;344.05;;;;;;;;;;4928528;28;20284;-56
2023/08/20 03:09:47;;;;;;;280.95;213.65;;;;;;;;;;4930193;28;20031;-53
2023/08/20 03:12:12;;;;;;;360.80;323.63;;;;;;;;;;4930539;28;20047;-55
2023/08/20 03:14:37;;;;;;;323.97;282.77;;;;;;;;;;4928639;28;20032;-54
2023/08/20 03:17:03;;;;;;;364.40;327.60;;;;;;;;;;4930603;28;20852;-55
2023/08/20 03:19:34;;;;;;;429.55;382.90;;;;;;;;;;4929280;28;20263;-55
2023/08/20 03:22:00;;;;;;;435.77;390.27;;;;;;;;;;4928154;28;20041;-53
2023/08/20 03:24:25;;;;;;;420.20;377.83;;;;;;;;;;4929876;28;20285;-53
2023/08/20 03:26:50;;;;;;;193.80;49.73;;;;;;;;;;4929161;28;20047;-56
2023/08/20 03:29:15;;;;;;;312.53;279.37;;;;;;;;;;4928413;28;20027;-53
2023/08/20 03:31:41;;;;;;;426.23;370.53;;;;;;;;;;4928887;28;20047;-54
2023/08/20 03:34:08;;;;;;;348.70;306.97;;;;;;;;;;4932379;28;20271;-55
2023/08/20 03:36:33;;;;;;;323.08;281.35;;;;;;;;;;4931685;28;20103;-55
2023/08/20 03:38:59;;;;;;;382.43;329.37;;;;;;;;;;4928785;28;20027;-55
2023/08/20 03:41:24;;;;;;;376.90;322.27;;;;;;;;;;4931272;28;20107;-55
2023/08/20 03:43:49;;;;;;;396.00;339.30;;;;;;;;;;4928590;28;20281;-53
2023/08/20 03:46:14;;;;;;;366.17;326.40;;;;;;;;;;4930521;28;20094;-55
2023/08/20 03:48:40;;;;;;;301.00;215.27;;;;;;;;;;4927659;28;20310;-54
2023/08/20 03:51:05;;;;;;;386.55;347.23;;;;;;;;;;4927562;28;20074;-54
2023/08/20 03:53:30;;;;;;;319.08;282.52;;;;;;;;;;4931671;28;20085;-53
2023/08/20 03:55:56;;;;;;;377.00;297.83;;;;;;;;;;4928325;28;20031;-56
2023/08/20 03:58:21;;;;;;;366.23;327.63;;;;;;;;;;4928827;28;20314;-54
2023/08/20 04:00:46;;;;;;;369.10;293.60;;;;;;;;;;4927804;28;20044;-53
2023/08/20 04:03:11;;;;;;;311.33;277.17;;;;;;;;;;4928393;28;20816;-52
2023/08/20 04:05:37;;;;;;;342.80;308.38;;;;;;;;;;4928620;28;20279;-55
2023/08/20 04:08:03;;;;;;;352.38;296.92;;;;;;;;;;4928803;28;20023;-54
2023/08/20 04:10:28;;;;;;;350.02;310.73;;;;;;;;;;4928588;28;20024;-53
2023/08/20 04:12:54;;;;;;;396.43;321.03;;;;;;;;;;4928784;28;20393;-53
2023/08/20 04:15:19;;;;;;;399.10;357.88;;;;;;;;;;4929077;28;20282;-55
2023/08/20 04:17:45;;;;;;;549.20;490.37;;;;;;;;;;4928709;28;20023;-55
2023/08/20 04:20:10;;;;;;;382.45;342.88;;;;;;;;;;4932466;28;20275;-55
2023/08/20 04:22:37;;;;;;;338.10;302.47;;;;;;;;;;4933821;28;20028;-54
2023/08/20 04:25:02;;;;;;;326.15;291.85;;;;;;;;;;4932019;28;21061;-55
2023/08/20 04:27:27;;;;;;;313.48;279.52;;;;;;;;;;4933153;28;20079;-55
2023/08/20 04:29:52;;;;;;;345.50;269.67;;;;;;;;;;4933038;28;20454;-54
2023/08/20 04:32:18;;;;;;;299.87;260.70;;;;;;;;;;4933854;28;20662;-56
2023/08/20 04:34:43;;;;;;;386.80;344.27;;;;;;;;;;4933597;28;20349;-53
2023/08/20 04:37:08;;;;;;;440.03;396.10;;;;;;;;;;4933382;28;20365;-54
2023/08/20 04:39:33;;;;;;;368.97;330.23;;;;;;;;;;4933106;28;20417;-55
2023/08/20 04:42:00;;;;;;;276.37;205.57;;;;;;;;;;4932491;28;20039;-55
2023/08/20 04:44:25;;;;;;;337.83;292.23;;;;;;;;;;4933863;28;20286;-55
2023/08/20 04:46:50;;;;;;;360.05;291.05;;;;;;;;;;4931648;28;20043;-54
2023/08/20 04:49:16;;;;;;;187.03;137.90;;;;;;;;;;4932844;28;20110;-54
2023/08/20 04:51:41;;;;;;;332.58;295.13;;;;;;;;;;4932437;28;20398;-54
2023/08/20 04:54:07;;;;;;;310.33;277.45;;;;;;;;;;4933596;28;20043;-53
2023/08/20 04:56:32;;;;;;;416.97;374.03;;;;;;;;;;4932676;28;20036;-54
2023/08/20 04:58:57;;;;;;;423.47;304.67;;;;;;;;;;4932212;28;20278;-55
2023/08/20 05:01:22;;;;;;;339.90;301.87;;;;;;;;;;4931126;28;20319;-54
2023/08/20 05:03:48;;;;;;;461.10;386.57;;;;;;;;;;4932191;28;20630;-54
2023/08/20 05:06:13;;;;;;;206.90;167.40;;;;;;;;;;4933015;28;20606;-53
2023/08/20 05:08:38;;;;;;;337.73;301.10;;;;;;;;;;4933234;28;20270;-54
2023/08/20 05:11:03;;;;;;;378.77;339.40;;;;;;;;;;4929446;28;20857;-54
2023/08/20 05:13:29;;;;;;;456.55;413.17;;;;;;;;;;4932630;28;20299;-53
2023/08/20 05:15:54;;;;;;;323.63;267.77;;;;;;;;;;4930099;28;20035;-55
2023/08/20 05:18:19;;;;;;;373.57;335.67;;;;;;;;;;4933181;28;20356;-53
2023/08/20 05:20:44;;;;;;;433.07;386.90;;;;;;;;;;4928794;28;20039;-54
2023/08/20 05:23:09;;;;;;;351.77;299.57;;;;;;;;;;4931910;28;20347;-53
2023/08/20 05:25:35;;;;;;;404.45;365.65;;;;;;;;;;4929735;28;20046;-54
2023/08/20 05:28:01;;;;;;;366.02;294.90;;;;;;;;;;4930197;28;20098;-54
2023/08/20 05:30:26;;;;;;;288.10;247.95;;;;;;;;;;4931782;28;20304;-54
2023/08/20 05:32:51;;;;;;;326.52;232.25;;;;;;;;;;4931308;28;20472;-54
2023/08/20 05:35:17;;;;;;;260.47;234.50;;;;;;;;;;4931471;28;20023;-55
2023/08/20 05:37:42;;;;;;;312.37;263.30;;;;;;;;;;4932460;28;20091;-54
2023/08/20 05:40:08;;;;;;;245.82;201.85;;;;;;;;;;4930755;28;20271;-55
2023/08/20 05:42:34;;;;;;;297.10;264.83;;;;;;;;;;4930730;28;20039;-54
2023/08/20 05:44:59;;;;;;;429.95;312.00;;;;;;;;;;4931864;28;20046;-55
2023/08/20 05:47:24;;;;;;;429.97;383.60;;;;;;;;;;4930170;28;20039;-56
2023/08/20 05:49:49;;;;;;;312.27;249.17;;;;;;;;;;4931731;28;20028;-54
2023/08/20 05:52:15;;;;;;;336.63;291.70;;;;;;;;;;4931526;28;20099;-54
2023/08/20 05:54:40;;;;;;;273.83;246.27;;;;;;;;;;4934080;28;20027;-56
2023/08/20 05:57:05;;;;;;;286.20;257.20;;;;;;;;;;4931600;28;20122;-54
2023/08/20 05:59:30;;;;;;;469.05;421.13;;;;;;;;;;4931712;28;20027;-54
2023/08/20 06:01:56;;;;;;;362.63;302.00;;;;;;;;;;4930615;28;20413;-54
2023/08/20 06:04:21;;;;;;;329.40;295.17;;;;;;;;;;4930566;28;20390;-56
2023/08/20 06:06:46;;;;;;;370.60;330.80;;;;;;;;;;4932427;28;20049;-52
2023/08/20 06:09:11;;;;;;;410.83;369.33;;;;;;;;;;4931210;28;20024;-55
2023/08/20 06:11:37;;;;;;;295.63;264.43;;;;;;;;;;4929662;28;20179;-55
2023/08/20 06:14:02;;;;;;;337.77;295.57;;;;;;;;;;4928559;28;20082;-54
2023/08/20 06:16:27;;;;;;;226.48;173.98;;;;;;;;;;4928862;28;20036;-54
2023/08/20 06:18:53;;;;;;;306.03;225.47;;;;;;;;;;4929248;28;20027;-54
2023/08/20 06:21:18;;;;;;;220.10;160.07;;;;;;;;;;4929987;28;20070;-53
2023/08/20 06:23:43;;;;;;;321.23;288.30;;;;;;;;;;4931612;28;20078;-56
2023/08/20 06:26:08;;;;;;;249.73;223.23;;;;;;;;;;4929458;28;20040;-56
2023/08/20 06:28:34;;;;;;;331.97;296.80;;;;;;;;;;4929394;28;20034;-56
2023/08/20 06:30:59;;;;;;;390.77;350.97;;;;;;;;;;4928054;28;20573;-54
2023/08/20 06:33:24;;;;;;;388.60;350.30;;;;;;;;;;4929903;28;20378;-55
2023/08/20 06:35:49;;;;;;;414.83;361.03;;;;;;;;;;4930224;28;20066;-55
2023/08/20 06:38:15;;;;;;;458.80;416.50;;;;;;;;;;4928832;28;20304;-54
2023/08/20 06:40:40;;;;;;;316.70;277.00;;;;;;;;;;4930803;28;20079;-55
2023/08/20 06:43:05;;;;;;;429.97;366.73;;;;;;;;;;4927697;28;20032;-54
2023/08/20 06:45:30;;;;;;;432.70;390.03;;;;;;;;;;4930354;28;20296;-54
2023/08/20 06:47:57;;;;;;;455.47;405.40;;;;;;;;;;4929933;28;20187;-54
2023/08/20 06:50:22;;;;;;;411.80;371.70;;;;;;;;;;4930022;28;20413;-55
2023/08/20 06:52:48;;;;;;;418.02;375.95;;;;;;;;;;4930790;28;20501;-55
2023/08/20 06:55:13;;;;;;;386.80;349.87;;;;;;;;;;4929122;28;20031;-55
2023/08/20 06:57:38;;;;;;;465.05;421.45;;;;;;;;;;4930475;28;20489;-54
2023/08/20 07:00:04;;;;;;;490.30;437.37;;;;;;;;;;4930166;28;20024;-56
2023/08/20 07:02:30;;;;;;;427.83;387.42;;;;;;;;;;4929161;28;20415;-55
2023/08/20 07:04:55;;;;;;;528.43;474.03;;;;;;;;;;4929109;28;20023;-55
2023/08/20 07:07:20;;;;;;;468.07;422.33;;;;;;;;;;4929444;28;20334;-55
2023/08/20 07:09:45;;;;;;;498.53;448.40;;;;;;;;;;4930355;28;20282;-55
2023/08/20 07:12:11;;;;;;;454.70;410.17;;;;;;;;;;4926943;28;20074;-56
2023/08/20 07:14:36;;;;;;;435.80;395.37;;;;;;;;;;4929761;28;20024;-56
2023/08/20 07:17:02;;;;;;;582.97;524.47;;;;;;;;;;4928263;28;20051;-54
2023/08/20 07:19:28;;;;;;;550.88;491.60;;;;;;;;;;4930971;28;20027;-55
2023/08/20 07:21:53;;;;;;;581.70;521.38;;;;;;;;;;4926472;28;20046;-54
2023/08/20 07:24:25;;;;;;;423.70;379.77;;;;;;;;;;4929794;28;20379;-57
2023/08/20 07:26:50;;;;;;;480.30;436.75;;;;;;;;;;4929332;28;20086;-54
2023/08/20 07:29:15;;;;;;;409.70;371.70;;;;;;;;;;4928872;28;20799;-55
2023/08/20 07:31:40;;;;;;;454.77;412.27;;;;;;;;;;4929476;28;20038;-57
2023/08/20 07:34:06;;;;;;;613.13;410.60;;;;;;;;;;4928744;28;20027;-56
2023/08/20 07:36:31;;;;;;;490.13;439.50;;;;;;;;;;4930017;28;20042;-56
2023/08/20 07:38:56;;;;;;;411.45;366.65;;;;;;;;;;4929520;28;20023;-56
2023/08/20 07:41:22;;;;;;;457.40;412.20;;;;;;;;;;4928848;28;20068;-55
2023/08/20 07:43:47;;;;;;;424.37;381.70;;;;;;;;;;4928296;28;20417;-57
2023/08/20 07:46:13;;;;;;;488.20;444.33;;;;;;;;;;4928300;28;20047;-56
2023/08/20 07:48:38;;;;;;;506.10;459.70;;;;;;;;;;4928968;28;20027;-56
2023/08/20 07:51:03;;;;;;;593.15;531.67;;;;;;;;;;4928408;28;20588;-56
2023/08/20 07:53:29;;;;;;;612.67;514.77;;;;;;;;;;4929078;28;20081;-56
2023/08/20 07:55:55;;;;;;;498.20;446.58;;;;;;;;;;4924899;28;20039;-56
2023/08/20 07:58:20;;;;;;;508.35;419.35;;;;;;;;;;4928690;28;20038;-55
2023/08/20 08:00:45;;;;;;;430.93;387.47;;;;;;;;;;4926175;28;20516;-56
2023/08/20 08:03:10;;;;;;;525.10;472.83;;;;;;;;;;4927442;28;20278;-58
2023/08/20 08:05:36;;;;;;;536.73;466.80;;;;;;;;;;4928451;28;20511;-54
2023/08/20 08:08:02;;;;;;;519.30;462.05;;;;;;;;;;4929579;28;20433;-56
2023/08/20 08:10:27;;;;;;;549.50;493.40;;;;;;;;;;4926359;28;20112;-56
2023/08/20 08:12:52;;;;;;;599.67;526.03;;;;;;;;;;4928328;28;20401;-54
2023/08/20 08:15:18;;;;;;;504.03;454.03;;;;;;;;;;4928528;28;20027;-55
2023/08/20 08:17:43;;;;;;;452.27;404.40;;;;;;;;;;4927243;28;20071;-55
2023/08/20 08:20:09;;;;;;;508.40;452.02;;;;;;;;;;4927611;28;20027;-56
2023/08/20 08:22:34;;;;;;;625.60;505.60;;;;;;;;;;4929609;28;20019;-56
2023/08/20 08:24:59;;;;;;;543.30;485.60;;;;;;;;;;4927380;28;20032;-55
2023/08/20 08:27:24;;;;;;;525.40;471.83;;;;;;;;;;4928987;28;20043;-56
2023/08/20 08:29:50;;;;;;;434.63;393.90;;;;;;;;;;4926160;28;20024;-57
2023/08/20 08:32:15;;;;;;;523.58;474.13;;;;;;;;;;4924636;28;20043;-55
2023/08/20 08:34:40;;;;;;;699.83;620.00;;;;;;;;;;4929992;28;20035;-55
2023/08/20 08:37:06;;;;;;;520.23;464.33;;;;;;;;;;4928300;28;20051;-54
2023/08/20 08:39:32;;;;;;;450.53;407.50;;;;;;;;;;4929538;28;20027;-54
2023/08/20 08:42:01;;;;;;;529.13;475.30;;;;;;;;;;4922984;28;20113;-54
2023/08/20 08:44:27;;;;;;;408.42;371.83;;;;;;;;;;4926486;28;20028;-56
2023/08/20 08:46:52;;;;;;;467.42;421.65;;;;;;;;;;4927575;28;20445;-57
2023/08/20 08:49:19;;;;;;;390.63;355.57;;;;;;;;;;4926970;28;20823;-55
2023/08/20 08:51:44;;;;;;;469.48;418.70;;;;;;;;;;4927541;28;20086;-57
2023/08/20 08:54:10;;;;;;;475.88;427.92;;;;;;;;;;4927296;28;20024;-56
2023/08/20 08:56:35;;;;;;;471.53;426.87;;;;;;;;;;4935692;28;20561;-57
2023/08/20 08:59:00;;;;;;;453.10;406.07;;;;;;;;;;4928546;28;20074;-56
2023/08/20 09:01:25;;;;;;;489.53;405.03;;;;;;;;;;4931229;28;20051;-56
2023/08/20 09:03:51;;;;;;;459.83;419.70;;;;;;;;;;4929558;28;20079;-57
2023/08/20 09:06:16;;;;;;;422.40;384.23;;;;;;;;;;4931512;28;20068;-57
2023/08/20 09:08:41;;;;;;;434.23;392.37;;;;;;;;;;4931231;28;20019;-56
2023/08/20 09:11:07;;;;;;;447.50;404.80;;;;;;;;;;4930623;28;20570;-56
2023/08/20 09:13:32;;;;;;;556.63;495.03;;;;;;;;;;4931711;28;20558;-55
2023/08/20 09:15:57;;;;;;;527.17;468.40;;;;;;;;;;4928539;28;20664;-55
2023/08/20 09:18:22;;;;;;;617.00;541.87;;;;;;;;;;4933472;28;20483;-55
2023/08/20 09:20:49;;;;;;;468.47;422.40;;;;;;;;;;4930950;28;20702;-59
2023/08/20 09:23:14;;;;;;;437.35;389.65;;;;;;;;;;4931596;28;20690;-54
2023/08/20 09:25:40;;;;;;;444.10;402.80;;;;;;;;;;4931542;28;20048;-57
2023/08/20 09:28:05;;;;;;;435.75;392.25;;;;;;;;;;4930227;28;20625;-56
2023/08/20 09:30:30;;;;;;;464.08;418.48;;;;;;;;;;4929868;28;20328;-56
2023/08/20 09:33:03;;;;;;;430.90;387.65;;;;;;;;;;4933487;28;20414;-57
2023/08/20 09:35:28;;;;;;;408.05;366.15;;;;;;;;;;4930047;28;20035;-55
2023/08/20 09:37:58;;;;;;;476.63;431.17;;;;;;;;;;4931540;28;20039;-55
2023/08/20 09:40:24;;;;;;;543.67;479.83;;;;;;;;;;4929425;28;20031;-57
2023/08/20 09:42:49;;;;;;;520.85;414.10;;;;;;;;;;4932511;28;20745;-56
2023/08/20 09:45:15;;;;;;;519.47;467.27;;;;;;;;;;4930045;28;20042;-54
2023/08/20 09:47:41;;;;;;;475.58;421.50;;;;;;;;;;4932316;28;20030;-56
2023/08/20 09:50:10;;;;;;;503.67;435.60;;;;;;;;;;4930177;28;20050;-56
2023/08/20 09:52:38;;;;;;;397.38;343.33;;;;;;;;;;4930876;28;20469;-56
2023/08/20 09:55:07;;;;;;;560.88;499.40;;;;;;;;;;4929502;28;20042;-54
2023/08/20 09:57:35;;;;;;;424.10;381.67;;;;;;;;;;4931069;28;20028;-55
2023/08/20 10:00:00;;;;;;;515.05;452.63;;;;;;;;;;4929497;28;20115;-54
2023/08/20 10:02:26;;;;;;;550.58;468.02;;;;;;;;;;4930630;28;20043;-55
2023/08/20 10:04:52;;;;;;;428.10;384.83;;;;;;;;;;4932514;28;20054;-56
2023/08/20 10:07:18;;;;;;;533.90;472.95;;;;;;;;;;4928842;28;20126;-56
2023/08/20 10:09:45;;;;;;;563.47;501.63;;;;;;;;;;4931420;28;20385;-56
2023/08/20 10:12:11;;;;;;;611.25;499.02;;;;;;;;;;4929616;28;20039;-54
2023/08/20 10:14:36;;;;;;;540.22;481.83;;;;;;;;;;4933057;28;20035;-55
2023/08/20 10:17:06;;;;;;;644.50;513.03;;;;;;;;;;4927104;28;20047;-55
2023/08/20 10:19:31;;;;;;;713.67;592.90;;;;;;;;;;4930810;28;20020;-56
2023/08/20 10:21:56;;;;;;;701.37;531.73;;;;;;;;;;4930192;28;20047;-57
2023/08/20 10:24:23;;;;;;;676.20;493.77;;;;;;;;;;4931882;28;20130;-56
2023/08/20 10:26:49;;;;;;;456.98;411.08;;;;;;;;;;4930224;28;20066;-54
2023/08/20 10:29:46;;;;;;;529.17;444.73;;;;;;;;;;4928351;28;20126;-57
2023/08/20 10:32:12;;;;;;;575.20;460.08;;;;;;;;;;4928113;28;20050;-55
2023/08/20 10:34:38;;;;;;;402.63;362.77;;;;;;;;;;4929892;28;20119;-60
2023/08/20 10:37:11;;;;;;;458.80;409.92;;;;;;;;;;4929159;28;20421;-57
2023/08/20 10:39:37;;;;;;;437.92;379.58;;;;;;;;;;4929033;28;20446;-57
2023/08/20 10:42:14;;;;;;;479.60;429.60;;;;;;;;;;4930396;28;20043;-55
2023/08/20 10:45:03;;;;;;;449.75;405.40;;;;;;;;;;4931967;28;20055;-55
2023/08/20 10:47:35;;;;;;;411.20;369.10;;;;;;;;;;4930515;28;20032;-56
2023/08/20 10:50:01;;;;;;;431.23;387.02;;;;;;;;;;4931028;28;20035;-56
2023/08/20 10:52:27;;;;;;;433.83;390.75;;;;;;;;;;4928849;28;20036;-55
2023/08/20 10:54:52;;;;;;;422.20;363.50;;;;;;;;;;4929541;28;20426;-55
2023/08/20 10:57:21;;;;;;;386.95;342.65;;;;;;;;;;4928765;28;20062;-54
2023/08/20 10:59:55;;;;;;;521.10;466.08;;;;;;;;;;4929188;28;20030;-56
2023/08/20 11:02:21;;;;;;;398.95;334.25;;;;;;;;;;4927299;28;20042;-55
2023/08/20 11:04:46;;;;;;;600.20;539.30;;;;;;;;;;4930878;28;20035;-56
2023/08/20 11:07:17;;;;;;;523.53;463.93;;;;;;;;;;4927467;28;20043;-55
2023/08/20 11:09:42;;;;;;;518.28;465.45;;;;;;;;;;4929014;28;20527;-54
2023/08/20 11:12:07;;;;;;;515.28;460.58;;;;;;;;;;4927508;28;20048;-55
2023/08/20 11:14:32;;;;;;;500.87;445.30;;;;;;;;;;4929493;28;20473;-57
2023/08/20 11:16:58;;;;;;;523.03;467.10;;;;;;;;;;4928872;28;20035;-56
2023/08/20 11:19:23;;;;;;;561.60;502.87;;;;;;;;;;4928093;28;20033;-57
2023/08/20 11:21:49;;;;;;;433.17;387.08;;;;;;;;;;4928825;28;20070;-57
2023/08/20 11:24:14;;;;;;;513.08;459.50;;;;;;;;;;4929850;28;20031;-56
2023/08/20 11:26:40;;;;;;;509.77;453.93;;;;;;;;;;4929571;28;20054;-55
2023/08/20 11:29:06;;;;;;;544.00;442.90;;;;;;;;;;4928978;28;20616;-55
2023/08/20 11:31:31;;;;;;;551.90;488.00;;;;;;;;;;4929103;28;20046;-57
2023/08/20 11:33:57;;;;;;;492.60;443.33;;;;;;;;;;4929983;28;20827;-56
2023/08/20 11:36:22;;;;;;;567.37;485.33;;;;;;;;;;4928613;28;20027;-57
2023/08/20 11:38:54;;;;;;;597.13;512.70;;;;;;;;;;4929619;28;20266;-56
2023/08/20 11:41:23;;;;;;;526.58;432.27;;;;;;;;;;4928040;28;20038;-55
2023/08/20 11:43:49;;;;;;;527.72;470.60;;;;;;;;;;4928532;28;20020;-56
2023/08/20 11:46:15;;;;;;;546.10;487.42;;;;;;;;;;4926889;28;20086;-56
2023/08/20 11:49:00;;;;;;;584.97;527.45;;;;;;;;;;4928889;28;20498;-56
2023/08/20 11:51:25;;;;;;;357.10;321.80;;;;;;;;;;4927363;28;20118;-58
2023/08/20 11:53:50;;;;;;;572.37;518.40;;;;;;;;;;4930044;28;20030;-56
2023/08/20 11:56:16;;;;;;;560.97;485.73;;;;;;;;;;4927624;28;20461;-57
2023/08/20 11:58:41;;;;;;;476.10;423.88;;;;;;;;;;4928404;28;20032;-58
2023/08/20 12:01:09;;;;;;;556.67;501.20;;;;;;;;;;4930700;28;20039;-55
2023/08/20 12:03:37;;;;;;;505.67;456.48;;;;;;;;;;4930552;28;20035;-60
2023/08/20 12:06:16;;;;;;;431.05;390.58;;;;;;;;;;4913309;29;20051;-57
2023/08/20 12:08:42;;;;;;;536.83;481.83;;;;;;;;;;4928673;28;20060;-54
2023/08/20 12:11:07;;;;;;;528.40;478.77;;;;;;;;;;4927480;28;20043;-55
2023/08/20 12:13:32;;;;;;;457.17;410.37;;;;;;;;;;4928373;28;20095;-54
2023/08/20 12:15:57;;;;;;;476.47;427.43;;;;;;;;;;4927715;28;20086;-55
2023/08/20 12:18:22;;;;;;;634.27;563.73;;;;;;;;;;4928245;28;20034;-56
2023/08/20 12:20:48;;;;;;;540.73;490.53;;;;;;;;;;4927777;28;20285;-56
2023/08/20 12:23:13;;;;;;;549.10;443.23;;;;;;;;;;4925080;28;20402;-55
2023/08/20 12:25:38;;;;;;;634.00;565.87;;;;;;;;;;4928162;28;20296;-55
2023/08/20 12:28:07;;;;;;;454.40;410.30;;;;;;;;;;4929181;28;20462;-57
2023/08/20 12:30:34;;;;;;;477.70;429.77;;;;;;;;;;4926750;28;20047;-57
2023/08/20 12:33:00;;;;;;;500.42;445.10;;;;;;;;;;4928461;28;20170;-56
2023/08/20 12:35:25;;;;;;;452.33;398.17;;;;;;;;;;4929054;28;20118;-57
2023/08/20 12:37:50;;;;;;;499.67;451.03;;;;;;;;;;4928123;28;20429;-55
2023/08/20 12:40:15;;;;;;;605.23;548.93;;;;;;;;;;4928009;28;20429;-57
2023/08/20 12:42:41;;;;;;;425.90;385.83;;;;;;;;;;4931051;28;20397;-56
2023/08/20 12:45:07;;;;;;;529.22;477.25;;;;;;;;;;4931596;28;20074;-58
2023/08/20 12:47:32;;;;;;;509.85;459.25;;;;;;;;;;4931444;28;20505;-55
2023/08/20 12:49:57;;;;;;;387.77;347.47;;;;;;;;;;4933422;28;20030;-56
2023/08/20 12:52:23;;;;;;;626.40;550.73;;;;;;;;;;4930807;28;20350;-56
2023/08/20 12:54:48;;;;;;;402.13;360.60;;;;;;;;;;4933684;28;20286;-56
2023/08/20 12:57:13;;;;;;;563.90;505.17;;;;;;;;;;4933281;28;20713;-57
2023/08/20 12:59:38;;;;;;;522.07;469.20;;;;;;;;;;4933895;28;20085;-58
2023/08/20 13:02:04;;;;;;;406.70;365.65;;;;;;;;;;4932657;28;20137;-56
2023/08/20 13:04:29;;;;;;;502.27;452.07;;;;;;;;;;4931071;28;20122;-58
2023/08/20 13:06:54;;;;;;;564.13;509.60;;;;;;;;;;4934006;28;20130;-58
2023/08/20 13:09:20;;;;;;;542.05;486.00;;;;;;;;;;4930823;28;20395;-56
2023/08/20 13:11:46;;;;;;;547.85;491.90;;;;;;;;;;4933184;28;20071;-58
2023/08/20 13:14:12;;;;;;;410.50;368.83;;;;;;;;;;4932011;28;20052;-56
2023/08/20 13:16:37;;;;;;;379.23;342.42;;;;;;;;;;4934150;28;20051;-57
2023/08/20 13:19:03;;;;;;;562.35;508.10;;;;;;;;;;4934083;28;20360;-57
2023/08/20 13:21:28;;;;;;;433.13;382.10;;;;;;;;;;4929570;28;20083;-56
2023/08/20 13:23:53;;;;;;;452.40;406.50;;;;;;;;;;4931607;28;20020;-57
2023/08/20 13:26:20;;;;;;;472.13;422.63;;;;;;;;;;4929778;28;20649;-55
2023/08/20 13:28:45;;;;;;;446.30;400.00;;;;;;;;;;4931277;28;20039;-56
2023/08/20 13:31:10;;;;;;;408.50;367.60;;;;;;;;;;4931101;28;20039;-55
2023/08/20 13:33:35;;;;;;;412.80;372.77;;;;;;;;;;4932043;28;20293;-55
2023/08/20 13:36:01;;;;;;;419.00;374.63;;;;;;;;;;4930203;28;20283;-54
2023/08/20 13:38:27;;;;;;;454.05;384.08;;;;;;;;;;4929474;28;20031;-54
2023/08/20 13:40:53;;;;;;;507.88;459.35;;;;;;;;;;4931689;28;20305;-56
2023/08/20 13:43:19;;;;;;;501.17;447.60;;;;;;;;;;4930979;28;20019;-55
2023/08/20 13:45:44;;;;;;;518.50;468.17;;;;;;;;;;4931325;28;20176;-56